createdAt,value
2019-05-15T00:01:04.941Z,78.20
2019-05-15T00:03:33.218Z,78.46
2019-05-15T00:06:01.491Z,79.62
2019-05-15T00:08:29.788Z,79.85
2019-05-15T00:10:58.814Z,79.97
2019-05-15T00:13:28.238Z,79.91
2019-05-15T00:15:58.861Z,79.72
2019-05-15T00:18:28.194Z,79.80
2019-05-15T00:20:59.322Z,80.30
2019-05-15T00:23:28.957Z,80.61
2019-05-15T00:25:58.483Z,81.27
2019-05-15T00:28:27.978Z,81.39
2019-05-15T00:30:58.284Z,81.71
2019-05-15T00:33:28.661Z,81.65
2019-05-15T00:35:58.855Z,81.72
2019-05-15T00:38:28.009Z,81.63
2019-05-15T00:40:58.496Z,83.06
2019-05-15T00:43:28.940Z,82.86
2019-05-15T00:45:58.540Z,83.56
2019-05-15T00:48:29.039Z,83.53
2019-05-15T00:50:58.866Z,83.73
2019-05-15T00:53:28.325Z,83.67
2019-05-15T00:55:58.092Z,83.76
2019-05-15T00:58:28.339Z,83.97
2019-05-15T01:00:59.043Z,84.02
2019-05-15T01:03:27.894Z,84.22
2019-05-15T01:05:58.500Z,84.53
2019-05-15T01:08:28.306Z,84.45
2019-05-15T01:10:58.262Z,84.70
2019-05-15T01:13:28.167Z,84.87
2019-05-15T01:15:58.271Z,84.90
2019-05-15T01:18:29.085Z,84.92
2019-05-15T01:20:58.637Z,84.87
2019-05-15T01:23:28.241Z,84.99
2019-05-15T01:25:58.866Z,85.55
2019-05-15T01:28:28.932Z,85.67
2019-05-15T01:30:59.172Z,86.01
2019-05-15T01:33:28.338Z,86.20
2019-05-15T01:35:58.883Z,86.57
2019-05-15T01:38:28.025Z,87.03
2019-05-15T01:40:58.989Z,87.55
2019-05-15T01:43:28.949Z,87.70
2019-05-15T01:45:58.726Z,87.94
2019-05-15T01:48:28.290Z,87.78
2019-05-15T01:50:58.524Z,87.91
2019-05-15T01:53:29.023Z,88.03
2019-05-15T01:55:58.932Z,88.26
2019-05-15T01:58:28.739Z,88.35
2019-05-15T02:00:58.931Z,88.52
2019-05-15T02:03:28.956Z,88.46
2019-05-15T02:05:58.676Z,88.49
2019-05-15T02:08:28.473Z,88.50
2019-05-15T02:10:58.841Z,88.47
2019-05-15T02:13:28.265Z,88.36
2019-05-15T02:15:58.766Z,88.44
2019-05-15T02:18:28.549Z,88.70
2019-05-15T02:20:58.701Z,88.64
2019-05-15T02:23:28.040Z,88.64
2019-05-15T02:25:58.707Z,88.73
2019-05-15T02:28:28.746Z,88.75
2019-05-15T02:30:58.813Z,88.85
2019-05-15T02:33:29.807Z,88.93
2019-05-15T02:35:59.454Z,89.02
2019-05-15T02:38:29.541Z,89.16
2019-05-15T02:40:59.221Z,89.37
2019-05-15T02:43:29.851Z,89.62
2019-05-15T02:46:00.449Z,89.70
2019-05-15T02:48:28.953Z,89.75
2019-05-15T02:50:58.915Z,89.79
2019-05-15T02:53:29.921Z,89.91
2019-05-15T02:56:00.164Z,90.24
2019-05-15T02:58:29.160Z,90.43
2019-05-15T03:00:59.308Z,90.65
2019-05-15T03:03:29.518Z,90.91
2019-05-15T03:06:00.134Z,91.10
2019-05-15T03:08:29.704Z,91.23
2019-05-15T03:10:59.208Z,91.28
2019-05-15T03:13:29.923Z,91.22
2019-05-15T03:15:59.820Z,91.16
2019-05-15T03:18:28.883Z,91.04
2019-05-15T03:21:00.337Z,90.92
2019-05-15T03:23:29.489Z,90.72
2019-05-15T03:26:00.607Z,90.46
2019-05-15T03:28:29.432Z,90.45
2019-05-15T03:31:33.268Z,90.38
2019-05-15T03:33:35.689Z,90.45
2019-05-15T03:36:02.462Z,90.46
2019-05-15T03:38:29.677Z,90.40
2019-05-15T03:40:59.645Z,90.22
2019-05-15T03:43:29.208Z,90.08
2019-05-15T03:46:01.235Z,89.84
2019-05-15T03:48:28.867Z,89.65
2019-05-15T03:50:59.766Z,89.40
2019-05-15T03:53:29.782Z,89.07
2019-05-15T03:55:58.901Z,88.89
2019-05-15T03:58:28.878Z,88.69
2019-05-15T04:01:00.189Z,88.58
2019-05-15T04:03:29.960Z,88.48
2019-05-15T04:06:00.562Z,88.43
2019-05-15T04:08:29.901Z,88.21
2019-05-15T04:10:59.608Z,88.09
2019-05-15T04:13:29.974Z,88.14
2019-05-15T04:15:59.396Z,88.07
2019-05-15T04:18:29.026Z,87.86
2019-05-15T04:21:00.257Z,87.71
2019-05-15T04:23:30.175Z,87.84
2019-05-15T04:25:59.018Z,87.80
2019-05-15T04:28:29.311Z,87.65
2019-05-15T04:30:59.639Z,87.40
2019-05-15T04:33:29.445Z,87.44
2019-05-15T04:35:58.957Z,87.69
2019-05-15T04:38:29.169Z,87.68
2019-05-15T04:40:59.031Z,87.54
2019-05-15T04:43:29.418Z,87.51
2019-05-15T04:45:59.254Z,87.36
2019-05-15T04:48:29.027Z,87.22
2019-05-15T04:50:58.849Z,87.02
2019-05-15T04:53:29.725Z,85.97
2019-05-15T04:55:59.826Z,85.30
2019-05-15T04:58:29.620Z,84.90
2019-05-15T05:01:00.001Z,84.34
2019-05-15T05:03:29.193Z,83.52
2019-05-15T05:05:59.116Z,83.05
2019-05-15T05:08:28.947Z,81.48
2019-05-15T05:10:59.197Z,81.09
2019-05-15T05:13:28.686Z,81.04
2019-05-15T05:15:58.654Z,80.14
2019-05-15T05:18:29.858Z,78.80
2019-05-15T05:20:57.950Z,76.68
2019-05-15T05:23:28.197Z,76.04
2019-05-15T05:25:58.103Z,76.32
2019-05-15T05:28:28.727Z,75.40
2019-05-15T05:30:58.856Z,75.31
2019-05-15T05:33:28.678Z,75.25
2019-05-15T05:35:58.424Z,75.15
2019-05-15T05:38:28.217Z,74.86
2019-05-15T05:40:58.707Z,73.57
2019-05-15T05:43:26.907Z,72.92
2019-05-15T05:45:55.231Z,72.45
2019-05-15T05:48:23.567Z,71.54
2019-05-15T05:50:51.847Z,70.81
2019-05-15T05:53:21.376Z,71.03
2019-05-15T05:55:52.987Z,71.25
2019-05-15T05:58:20.109Z,69.25
2019-05-15T06:00:49.149Z,67.15
2019-05-15T06:03:19.660Z,65.34
2019-05-15T06:05:49.781Z,65.06
2019-05-15T06:08:19.662Z,63.31
2019-05-15T06:10:49.667Z,63.33
2019-05-15T06:13:18.673Z,63.47
2019-05-15T06:15:48.743Z,63.46
2019-05-15T06:18:19.491Z,63.22
2019-05-15T06:20:49.597Z,62.68
2019-05-15T06:23:23.778Z,62.08
2019-05-15T06:25:49.201Z,60.83
2019-05-15T06:28:19.600Z,60.41
2019-05-15T06:30:48.658Z,58.08
2019-05-15T06:33:18.660Z,57.11
2019-05-15T06:35:48.895Z,55.93
2019-05-15T06:38:19.474Z,55.99
2019-05-15T06:40:48.679Z,53.79
2019-05-15T06:43:19.117Z,52.71
2019-05-15T06:45:48.691Z,52.80
2019-05-15T06:48:18.356Z,51.17
2019-05-15T06:50:49.016Z,50.20
2019-05-15T06:53:19.306Z,50.77
2019-05-15T06:55:48.595Z,49.22
2019-05-15T06:58:19.236Z,47.39
2019-05-15T07:00:48.801Z,48.07
2019-05-15T07:03:24.830Z,46.88
2019-05-15T07:05:50.316Z,45.78
2019-05-15T07:08:18.251Z,45.73
2019-05-15T07:10:48.750Z,44.07
2019-05-15T07:13:18.239Z,44.12
2019-05-15T07:15:49.098Z,43.68
2019-05-15T07:18:19.383Z,44.46
2019-05-15T07:20:48.780Z,42.97
2019-05-15T07:23:18.569Z,43.79
2019-05-15T07:25:49.758Z,43.31
2019-05-15T07:28:18.093Z,42.04
2019-05-15T07:30:49.028Z,41.06
2019-05-15T07:33:23.326Z,41.04
2019-05-15T07:35:48.708Z,39.99
2019-05-15T07:38:18.320Z,40.36
2019-05-15T07:40:55.495Z,41.35
2019-05-15T07:43:18.206Z,38.03
2019-05-15T07:45:53.216Z,38.17
2019-05-15T07:48:18.882Z,37.69
2019-05-15T07:50:49.337Z,38.08
2019-05-15T07:53:19.278Z,37.36
2019-05-15T07:55:49.410Z,35.94
2019-05-15T07:58:21.447Z,35.14
2019-05-15T08:00:49.266Z,34.56
2019-05-15T08:03:18.425Z,34.83
2019-05-15T08:05:57.093Z,35.03
2019-05-15T08:08:18.472Z,36.92
2019-05-15T08:10:48.952Z,34.94
2019-05-15T08:13:18.499Z,34.99
2019-05-15T08:15:48.768Z,36.39
2019-05-15T08:18:18.150Z,36.10
2019-05-15T08:20:49.099Z,34.66
2019-05-15T08:23:19.204Z,35.59
2019-05-15T08:25:48.479Z,35.16
2019-05-15T08:28:19.025Z,34.11
2019-05-15T08:30:49.464Z,35.07
2019-05-15T08:33:17.824Z,33.05
2019-05-15T08:35:51.114Z,34.15
2019-05-15T08:38:18.188Z,33.11
2019-05-15T08:40:48.992Z,33.29
2019-05-15T08:43:18.349Z,32.55
2019-05-15T08:45:49.757Z,32.40
2019-05-15T08:48:18.491Z,32.94
2019-05-15T08:50:48.802Z,32.79
2019-05-15T08:53:19.394Z,33.12
2019-05-15T08:55:48.187Z,32.90
2019-05-15T08:58:20.166Z,32.52
2019-05-15T09:00:51.791Z,32.26
2019-05-15T09:03:18.284Z,31.75
2019-05-15T09:05:48.478Z,32.81
2019-05-15T09:08:19.188Z,31.00
2019-05-15T09:10:49.902Z,31.46
2019-05-15T09:13:19.003Z,32.25
2019-05-15T09:15:48.228Z,31.96
2019-05-15T09:18:19.911Z,32.35
2019-05-15T09:20:49.082Z,30.73
2019-05-15T09:23:19.442Z,31.70
2019-05-15T09:25:49.309Z,30.71
2019-05-15T09:28:19.020Z,30.55
2019-05-15T09:30:48.433Z,28.73
2019-05-15T09:33:19.538Z,30.53
2019-05-15T09:35:49.056Z,30.26
2019-05-15T09:38:18.474Z,29.15
2019-05-15T09:40:50.368Z,29.55
2019-05-15T09:43:18.415Z,28.80
2019-05-15T09:45:49.265Z,28.60
2019-05-15T09:48:19.745Z,29.00
2019-05-15T09:50:49.281Z,28.82
2019-05-15T09:53:19.006Z,28.97
2019-05-15T09:55:49.377Z,29.87
2019-05-15T09:58:20.443Z,29.89
2019-05-15T10:00:51.768Z,29.91
2019-05-15T10:03:19.108Z,28.17
2019-05-15T10:05:48.248Z,27.78
2019-05-15T10:08:16.816Z,28.37
2019-05-15T10:10:45.146Z,29.57
2019-05-15T10:13:13.618Z,28.65
2019-05-15T10:15:41.906Z,27.99
2019-05-15T10:18:11.005Z,30.02
2019-05-15T10:20:39.357Z,29.63
2019-05-15T10:23:08.760Z,27.48
2019-05-15T10:25:38.947Z,26.68
2019-05-15T10:28:09.773Z,27.13
2019-05-15T10:30:39.458Z,27.00
2019-05-15T10:33:08.570Z,26.53
2019-05-15T10:35:39.327Z,27.27
2019-05-15T10:38:08.880Z,27.41
2019-05-15T10:40:39.507Z,26.77
2019-05-15T10:43:09.126Z,26.25
2019-05-15T10:45:42.243Z,25.99
2019-05-15T10:48:09.443Z,24.73
2019-05-15T10:50:38.851Z,26.37
2019-05-15T10:53:11.045Z,26.29
2019-05-15T10:55:39.510Z,26.56
2019-05-15T10:58:16.617Z,26.04
2019-05-15T11:00:37.923Z,26.82
2019-05-15T11:03:08.693Z,25.86
2019-05-15T11:05:44.542Z,26.73
2019-05-15T11:08:08.311Z,25.21
2019-05-15T11:10:38.561Z,24.43
2019-05-15T11:13:08.820Z,24.85
2019-05-15T11:15:40.466Z,26.35
2019-05-15T11:18:09.106Z,25.05
2019-05-15T11:20:40.835Z,24.92
2019-05-15T11:23:09.275Z,25.07
2019-05-15T11:25:38.315Z,23.49
2019-05-15T11:28:08.202Z,24.53
2019-05-15T11:30:39.342Z,24.47
2019-05-15T11:33:09.370Z,23.92
2019-05-15T11:35:39.244Z,24.08
2019-05-15T11:38:10.116Z,25.40
2019-05-15T11:40:38.962Z,23.92
2019-05-15T11:43:08.528Z,23.96
2019-05-15T11:45:38.968Z,23.45
2019-05-15T11:48:09.045Z,24.32
2019-05-15T11:50:40.019Z,23.53
2019-05-15T11:53:08.684Z,23.98
2019-05-15T11:55:38.704Z,24.00
2019-05-15T11:58:09.291Z,23.83
2019-05-15T12:00:38.439Z,25.23
2019-05-15T12:03:08.998Z,24.62
2019-05-15T12:05:38.506Z,24.56
2019-05-15T12:08:08.684Z,25.15
2019-05-15T12:10:38.847Z,24.01
2019-05-15T12:13:09.758Z,24.22
2019-05-15T12:15:38.775Z,23.58
2019-05-15T12:18:08.783Z,23.88
2019-05-15T12:20:39.037Z,25.16
2019-05-15T12:23:09.037Z,23.30
2019-05-15T12:25:39.593Z,25.31
2019-05-15T12:28:09.423Z,23.82
2019-05-15T12:30:40.361Z,23.46
2019-05-15T12:33:09.284Z,23.98
2019-05-15T12:35:39.628Z,23.67
2019-05-15T13:00:39.626Z,22.91
2019-05-15T13:03:09.060Z,22.98
2019-05-15T13:05:39.302Z,23.08
2019-05-15T13:08:08.364Z,22.85
2019-05-15T13:10:38.365Z,21.66
2019-05-15T13:13:09.439Z,22.34
2019-05-15T13:15:40.816Z,23.26
2019-05-15T13:18:12.829Z,21.89
2019-05-15T13:20:38.357Z,23.21
2019-05-15T13:23:07.999Z,22.84
2019-05-15T13:25:38.987Z,22.54
2019-05-15T13:28:08.578Z,23.28
2019-05-15T13:30:40.866Z,23.42
2019-05-15T13:33:09.404Z,22.58
2019-05-15T13:35:38.093Z,23.70
2019-05-15T13:38:09.530Z,23.75
2019-05-15T13:40:38.970Z,23.09
2019-05-15T13:43:08.236Z,24.17
2019-05-15T13:45:38.784Z,22.63
2019-05-15T13:48:08.798Z,23.02
2019-05-15T13:50:39.736Z,22.50
2019-05-15T13:53:10.251Z,23.49
2019-05-15T13:55:41.385Z,23.81
2019-05-15T13:58:08.681Z,22.50
2019-05-15T14:00:38.979Z,23.38
2019-05-15T14:03:09.223Z,23.54
2019-05-15T14:05:38.514Z,23.18
2019-05-15T14:08:07.112Z,22.47
2019-05-15T14:10:35.588Z,22.73
2019-05-15T14:13:03.957Z,23.07
2019-05-15T14:15:32.233Z,22.92
2019-05-15T14:18:00.642Z,23.48
2019-05-15T14:20:28.932Z,24.00
2019-05-15T14:22:59.063Z,23.23
2019-05-15T14:25:27.491Z,22.75
2019-05-15T14:27:55.870Z,23.30
2019-05-15T14:30:24.179Z,22.61
2019-05-15T14:32:52.488Z,22.93
2019-05-15T14:35:20.900Z,23.08
2019-05-15T14:38:02.557Z,23.04
2019-05-15T14:40:19.189Z,23.38
2019-05-15T14:42:48.545Z,22.67
2019-05-15T14:45:19.075Z,23.20
2019-05-15T14:47:49.192Z,23.45
2019-05-15T14:50:17.207Z,22.81
2019-05-15T14:52:47.807Z,22.24
2019-05-15T14:55:15.753Z,22.70
2019-05-15T14:57:44.050Z,23.59
2019-05-15T15:00:12.391Z,21.95
2019-05-15T15:02:40.697Z,22.82
2019-05-15T15:05:09.412Z,22.22
2019-05-15T15:07:38.394Z,21.91
2019-05-15T15:10:07.823Z,22.38
2019-05-15T15:12:39.132Z,22.74
2019-05-15T15:15:09.558Z,22.78
2019-05-15T15:17:38.687Z,22.81
2019-05-15T15:20:06.875Z,24.00
2019-05-15T15:22:35.267Z,23.58
2019-05-15T15:25:04.772Z,23.12
2019-05-15T15:27:33.799Z,23.27
2019-05-15T15:30:02.151Z,23.90
2019-05-15T15:32:30.453Z,24.03
2019-05-15T15:34:58.872Z,24.65
2019-05-15T15:37:28.716Z,24.02
2019-05-15T15:39:58.832Z,24.14
2019-05-15T15:42:28.514Z,24.21
2019-05-15T15:44:58.126Z,24.89
2019-05-15T15:47:28.194Z,25.63
2019-05-15T15:49:58.458Z,25.43
2019-05-15T15:52:28.946Z,26.68
2019-05-15T15:54:56.722Z,26.29
2019-05-15T15:57:25.107Z,25.12
2019-05-15T15:59:53.389Z,25.83
2019-05-15T16:02:21.759Z,25.00
2019-05-15T16:04:50.150Z,25.20
2019-05-15T16:07:18.457Z,25.89
2019-05-15T16:09:48.372Z,26.98
2019-05-15T16:12:18.581Z,27.17
2019-05-15T16:14:48.862Z,27.53
2019-05-15T16:17:18.086Z,27.36
2019-05-15T16:19:48.973Z,27.93
2019-05-15T16:22:18.632Z,28.30
2019-05-15T16:24:49.006Z,27.76
2019-05-15T16:27:18.279Z,28.98
2019-05-15T16:29:46.833Z,28.19
2019-05-15T16:32:18.560Z,28.52
2019-05-15T16:34:45.249Z,28.20
2019-05-15T16:37:13.529Z,28.18
2019-05-15T16:39:41.846Z,28.63
2019-05-15T16:42:11.044Z,27.93
2019-05-15T16:44:39.436Z,29.38
2019-05-15T16:47:08.437Z,28.00
2019-05-15T16:49:38.982Z,28.61
2019-05-15T16:52:09.263Z,28.24
2019-05-15T16:54:38.308Z,27.99
2019-05-15T16:57:09.433Z,28.13
2019-05-15T16:59:39.017Z,28.18
2019-05-15T17:02:08.703Z,28.57
2019-05-15T17:04:38.204Z,28.94
2019-05-15T17:07:06.673Z,29.31
2019-05-15T17:09:35.001Z,29.46
2019-05-15T17:12:03.643Z,30.14
2019-05-15T17:14:31.905Z,30.62
2019-05-15T17:17:00.238Z,30.60
2019-05-15T17:19:29.373Z,30.92
2019-05-15T17:21:58.827Z,31.25
2019-05-15T17:24:27.321Z,31.55
2019-05-15T17:26:55.669Z,31.74
2019-05-15T17:29:24.221Z,31.98
2019-05-15T17:31:52.509Z,32.41
2019-05-15T17:34:20.978Z,32.26
2019-05-15T17:36:49.431Z,32.77
2019-05-15T17:39:18.928Z,32.95
2019-05-15T17:41:48.331Z,33.03
2019-05-15T17:44:16.833Z,32.88
2019-05-15T17:46:45.309Z,33.52
2019-05-15T17:49:15.461Z,34.01
2019-05-15T17:51:43.794Z,33.86
2019-05-15T17:54:12.217Z,33.81
2019-05-15T17:56:40.541Z,33.88
2019-05-15T17:59:08.871Z,34.14
2019-05-15T18:01:38.255Z,35.02
2019-05-15T18:04:08.506Z,34.63
2019-05-15T18:06:39.230Z,34.80
2019-05-15T18:09:08.741Z,35.44
2019-05-15T18:11:38.375Z,36.71
2019-05-15T18:14:08.953Z,36.54
2019-05-15T18:16:38.181Z,36.22
2019-05-15T18:19:08.349Z,35.96
2019-05-15T18:21:38.417Z,36.17
2019-05-15T18:24:09.321Z,35.68
2019-05-15T18:26:38.689Z,36.30
2019-05-15T18:29:09.040Z,36.22
2019-05-15T18:31:48.010Z,37.01
2019-05-15T18:34:18.613Z,37.04
2019-05-15T18:36:48.478Z,37.13
2019-05-15T18:39:16.582Z,37.26
2019-05-15T18:41:44.887Z,38.17
2019-05-15T18:44:13.254Z,38.70
2019-05-15T18:46:41.947Z,38.78
2019-05-15T18:49:10.228Z,39.65
2019-05-15T18:51:38.684Z,39.96
2019-05-15T18:54:08.139Z,40.50
2019-05-15T18:56:38.640Z,40.81
2019-05-15T18:59:08.469Z,41.24
2019-05-15T19:01:38.944Z,41.31
2019-05-15T19:04:08.714Z,41.31
2019-05-15T19:06:38.313Z,42.17
2019-05-15T19:09:08.310Z,42.95
2019-05-15T19:11:38.387Z,44.33
2019-05-15T19:14:08.356Z,45.18
2019-05-15T19:16:38.738Z,45.71
2019-05-15T19:19:07.766Z,46.34
2019-05-15T19:21:38.228Z,46.82
2019-05-15T19:24:07.757Z,47.89
2019-05-15T19:26:36.384Z,47.97
2019-05-15T19:29:04.701Z,48.77
2019-05-15T19:31:33.140Z,48.86
2019-05-15T19:34:01.569Z,50.09
2019-05-15T19:36:30.109Z,50.54
2019-05-15T19:38:58.501Z,51.17
2019-05-15T19:41:28.812Z,51.88
2019-05-15T19:43:58.141Z,51.91
2019-05-15T19:46:28.348Z,52.77
2019-05-15T19:48:58.115Z,52.39
2019-05-15T19:51:28.834Z,52.74
2019-05-15T19:53:58.711Z,53.13
2019-05-15T19:56:26.891Z,53.25
2019-05-15T19:58:55.198Z,53.59
2019-05-15T20:01:23.561Z,54.40
2019-05-15T20:03:53.304Z,54.72
2019-05-15T20:06:21.817Z,54.88
2019-05-15T20:08:50.127Z,55.14
2019-05-15T20:11:18.536Z,55.90
2019-05-15T20:13:48.827Z,56.14
2019-05-15T20:16:21.081Z,56.57
2019-05-15T20:18:47.889Z,56.86
2019-05-15T20:21:18.208Z,56.80
2019-05-15T20:23:48.494Z,57.42
2019-05-15T20:26:17.967Z,58.04
2019-05-15T20:28:48.234Z,58.58
2019-05-15T20:31:18.694Z,58.50
2019-05-15T20:33:48.405Z,58.86
2019-05-15T20:36:18.301Z,59.20
2019-05-15T20:38:48.398Z,60.19
2019-05-15T20:41:18.692Z,60.38
2019-05-15T20:43:49.038Z,60.58
2019-05-15T20:46:19.326Z,61.38
2019-05-15T20:48:48.731Z,61.40
2019-05-15T20:51:18.585Z,61.84
2019-05-15T20:53:48.609Z,62.91
2019-05-15T20:56:17.158Z,62.93
2019-05-15T20:58:47.641Z,63.10
2019-05-15T21:01:18.062Z,63.47
2019-05-15T21:03:50.418Z,64.06
2019-05-15T21:06:17.911Z,64.59
2019-05-15T21:08:48.571Z,64.87
2019-05-15T21:11:18.024Z,64.75
2019-05-15T21:13:46.120Z,64.91
2019-05-15T21:16:14.507Z,64.52
2019-05-15T21:18:42.786Z,64.65
2019-05-15T21:21:11.227Z,64.92
2019-05-15T21:23:39.567Z,65.44
2019-05-15T21:26:10.974Z,65.51
2019-05-15T21:28:39.065Z,65.32
2019-05-15T21:31:08.776Z,65.37
2019-05-15T21:33:37.492Z,65.44
2019-05-15T21:36:07.817Z,65.60
2019-05-15T21:38:35.773Z,65.81
2019-05-15T21:41:04.800Z,66.02
2019-05-15T21:43:33.077Z,66.10
2019-05-15T21:46:01.422Z,66.36
2019-05-15T21:48:29.843Z,66.58
2019-05-15T21:50:58.287Z,66.50
2019-05-15T21:53:28.688Z,66.81
2019-05-15T21:55:58.790Z,66.87
2019-05-15T21:58:28.410Z,67.11
2019-05-15T22:00:56.922Z,67.30
2019-05-15T22:03:25.724Z,67.15
2019-05-15T22:05:54.030Z,67.11
2019-05-15T22:08:22.386Z,67.24
2019-05-15T22:10:51.269Z,67.21
2019-05-15T22:13:19.792Z,67.39
2019-05-15T22:15:50.071Z,67.83
2019-05-15T22:18:18.992Z,67.83
2019-05-15T22:20:48.113Z,67.79
2019-05-15T22:23:18.491Z,67.87
2019-05-15T22:25:49.730Z,68.00
2019-05-15T22:28:17.492Z,68.41
2019-05-15T22:30:47.821Z,68.50
2019-05-15T22:33:17.927Z,68.83
2019-05-15T22:35:48.806Z,69.17
2019-05-15T22:38:18.133Z,69.41
2019-05-15T22:40:49.663Z,69.57
2019-05-15T22:43:18.607Z,69.66
2019-05-15T22:45:48.302Z,70.10
2019-05-15T22:48:18.228Z,70.25
2019-05-15T22:50:47.850Z,70.50
2019-05-15T22:53:17.784Z,70.97
2019-05-15T22:55:48.354Z,71.43
2019-05-15T22:58:16.486Z,71.47
2019-05-15T23:00:44.785Z,71.84
2019-05-15T23:03:13.139Z,72.14
2019-05-15T23:05:41.659Z,73.01
2019-05-15T23:08:09.981Z,73.37
2019-05-15T23:10:38.261Z,73.42
2019-05-15T23:13:06.631Z,73.65
2019-05-15T23:15:35.158Z,73.83
2019-05-15T23:18:03.557Z,74.11
2019-05-15T23:20:31.900Z,74.27
2019-05-15T23:23:00.182Z,74.42
2019-05-15T23:25:29.116Z,74.67
2019-05-15T23:27:58.099Z,75.35
2019-05-15T23:30:28.783Z,76.16
2019-05-15T23:32:58.106Z,76.36
2019-05-15T23:35:35.498Z,76.77
2019-05-15T23:37:58.048Z,77.05
2019-05-15T23:40:28.874Z,77.19
2019-05-15T23:42:56.887Z,77.29
2019-05-15T23:45:25.200Z,77.15
2019-05-15T23:47:53.501Z,77.12
2019-05-15T23:50:21.811Z,77.13
2019-05-15T23:52:50.133Z,77.22
2019-05-15T23:55:18.939Z,77.05
2019-05-15T23:57:48.437Z,77.01
